This is the latest recevied weather packets stored in our database for station/object DK4DAX-2. If no packets are shown the sender has not sent any weather packets the latest 10 day(s).
| Time | Temp. | Humidity | Pressure | Rain* | Wind** | Luminosity | Snow |
|---|---|---|---|---|---|---|---|
| 1787664604 | 22.22° C | 38% | 1011.4 hPa | 0 mm | - | - | - |
| 1787663704 | 22.22° C | 39% | 1011.3 hPa | 0 mm | - | - | - |
| 1787662803 | 22.22° C | 39% | 1011.4 hPa | 0 mm | - | - | - |
| 1787661903 | 22.78° C | 39% | 1011.4 hPa | 0 mm | - | - | - |
| 1787661004 | 22.78° C | 39% | 1011.4 hPa | 0 mm | - | - | - |
| 1787660103 | 22.78° C | 38% | 1011.3 hPa | 0 mm | - | - | - |
| 1787659203 | 23.33° C | 38% | 1011.2 hPa | 0 mm | - | - | - |
| 1787658304 | 23.89° C | 37% | 1011.1 hPa | 0 mm | - | - | - |
| 1787657404 | 23.89° C | 34% | 1011.2 hPa | 0 mm | - | - | - |
| 1787656503 | 25° C | 33% | 1011 hPa | 0 mm | - | - | - |
| 1787655603 | 25° C | 33% | 1010.9 hPa | 0 mm | - | - | - |
| 1787654704 | 25° C | 33% | 1011.2 hPa | 0 mm | - | - | - |
| 1787653803 | 24.44° C | 35% | 1011.3 hPa | 0 mm | - | - | - |
| 1787652903 | 25° C | 33% | 1011.1 hPa | 0 mm | - | - | - |
| 1787652004 | 24.44° C | 37% | 1011.1 hPa | 0 mm | - | - | - |
| 1787651103 | 23.33° C | 38% | 1011.2 hPa | 0 mm | - | - | - |
| 1787650203 | 22.78° C | 36% | 1011.1 hPa | 0 mm | - | - | - |
| 1787649303 | 23.33° C | 35% | 1010.9 hPa | 0 mm | - | - | - |
| 1787648404 | 23.33° C | 39% | 1011.1 hPa | 0 mm | - | - | - |
| 1787647503 | 23.33° C | 37% | 1010.9 hPa | 0 mm | - | - | - |
| 1787646603 | 22.22° C | 40% | 1011.1 hPa | 0 mm | - | - | - |
| 1787645704 | 21.67° C | 40% | 1011.2 hPa | 0 mm | - | - | - |
| 1787644803 | 21.67° C | 43% | 1011.1 hPa | 0 mm | - | - | - |
| 1787643903 | 20.56° C | 47% | 1010.9 hPa | 0 mm | - | - | - |
| 1787643004 | 19.44° C | 51% | 1011.1 hPa | 0 mm | - | - | - |
* Rain latest hour (hover to see other rain measurements)
** Current wind speed in m/s (hover to see current wind gust speed)